createdAt,value
2023-01-13T05:13:26.597Z,440.00
2023-01-13T05:25:26.495Z,433.00
2023-01-13T05:26:26.550Z,435.00
2023-01-13T05:27:26.458Z,435.00
2023-01-13T05:28:26.452Z,438.00
2023-01-13T05:29:26.447Z,435.00
2023-01-13T05:30:26.425Z,438.00
2023-01-13T05:31:26.445Z,440.00
2023-01-13T05:32:26.415Z,440.00
2023-01-13T05:33:26.401Z,442.00
2023-01-13T05:34:26.395Z,441.00
2023-01-13T05:35:26.390Z,441.00
2023-01-13T05:36:26.368Z,442.00
2023-01-13T05:37:26.361Z,442.00
2023-01-13T05:38:26.356Z,443.00
2023-01-13T05:39:26.343Z,442.00
2023-01-13T05:40:26.343Z,442.00
2023-01-13T05:41:26.320Z,442.00
2023-01-13T05:42:26.354Z,444.00
2023-01-13T05:43:26.304Z,443.00
2023-01-13T05:44:26.292Z,442.00
2023-01-13T05:45:26.281Z,443.00
2023-01-13T05:46:26.309Z,444.00
2023-01-13T05:47:26.265Z,444.00
2023-01-13T05:48:26.257Z,442.00
2023-01-13T05:49:27.208Z,445.00
2023-01-13T05:50:26.233Z,443.00
2023-01-13T05:51:26.460Z,445.00
2023-01-13T05:52:26.218Z,443.00
2023-01-13T05:53:26.214Z,443.00
2023-01-13T05:54:26.196Z,445.00
2023-01-13T05:55:26.186Z,444.00
2023-01-13T05:56:26.184Z,443.00
2023-01-13T05:57:26.168Z,441.00
2023-01-13T05:58:26.189Z,441.00
2023-01-13T05:59:26.161Z,442.00
2023-01-13T06:00:26.148Z,443.00
2023-01-13T06:01:26.285Z,442.00
2023-01-13T06:02:26.121Z,441.00
2023-01-13T06:03:26.111Z,441.00
2023-01-13T06:04:26.132Z,440.00
2023-01-13T06:05:26.099Z,436.00
2023-01-13T06:06:26.083Z,436.00
2023-01-13T06:07:26.077Z,436.00
2023-01-13T06:08:26.104Z,437.00
2023-01-13T06:09:26.052Z,439.00
2023-01-13T06:10:26.046Z,439.00
2023-01-13T06:11:26.075Z,438.00
2023-01-13T06:12:26.023Z,440.00
2023-01-13T06:13:26.011Z,441.00
2023-01-13T06:14:26.042Z,442.00
2023-01-13T06:15:25.997Z,443.00
2023-01-13T06:16:26.006Z,444.00
2023-01-13T06:17:26.217Z,442.00
2023-01-13T06:18:25.971Z,443.00
2023-01-13T06:19:25.962Z,441.00
2023-01-13T06:20:25.968Z,440.00
2023-01-13T06:21:26.216Z,437.00
2023-01-13T06:22:25.938Z,435.00
2023-01-13T06:23:25.936Z,436.00
2023-01-13T06:24:26.222Z,436.00
2023-01-13T06:25:25.905Z,436.00
2023-01-13T06:26:25.909Z,435.00
2023-01-13T06:27:25.881Z,433.00
2023-01-13T06:28:26.223Z,434.00
2023-01-13T06:29:25.871Z,435.00
2023-01-13T06:30:25.909Z,437.00
2023-01-13T06:31:25.855Z,438.00
2023-01-13T06:32:25.840Z,437.00
2023-01-13T06:33:26.229Z,437.00
2023-01-13T06:34:25.817Z,436.00
2023-01-13T06:35:25.812Z,436.00
2023-01-13T06:36:26.226Z,439.00
2023-01-13T06:37:25.789Z,441.00
2023-01-13T06:38:25.794Z,442.00
2023-01-13T06:39:25.767Z,442.00
2023-01-13T06:40:26.909Z,441.00
2023-01-13T06:41:25.751Z,440.00
2023-01-13T06:42:25.741Z,441.00
2023-01-13T06:43:26.223Z,440.00
2023-01-13T06:44:25.727Z,440.00
2023-01-13T06:45:25.717Z,439.00
2023-01-13T06:46:25.868Z,441.00
2023-01-13T06:47:25.692Z,442.00
2023-01-13T06:48:26.484Z,445.00
2023-01-13T06:49:25.676Z,450.00
2023-01-13T06:50:25.671Z,453.00
2023-01-13T06:51:25.654Z,453.00
2023-01-13T06:52:25.729Z,459.00
2023-01-13T06:54:27.701Z,475.00
2023-01-13T06:55:25.800Z,483.00
2023-01-13T06:56:25.604Z,493.00
2023-01-13T06:57:25.603Z,505.00
2023-01-13T06:58:25.742Z,516.00
2023-01-13T06:59:25.579Z,568.00
2023-01-13T07:02:25.703Z,661.00
2023-01-13T07:03:25.729Z,672.00
2023-01-13T07:11:25.738Z,771.00
2023-01-13T07:14:26.467Z,771.00
2023-01-13T07:15:25.817Z,770.00
2023-01-13T07:18:25.820Z,783.00
2023-01-13T07:24:25.799Z,821.00
2023-01-13T07:29:25.740Z,879.00
2023-01-13T07:34:25.774Z,878.00
2023-01-13T08:33:25.731Z,869.00
2023-01-13T09:07:27.612Z,872.00
2023-01-13T10:38:26.763Z,794.00
2023-01-13T10:52:27.063Z,709.00
2023-01-13T11:09:30.711Z,655.00
2023-01-13T11:11:26.457Z,644.00
2023-01-13T22:45:16.719Z,434.00
2023-01-13T22:47:16.698Z,438.00
2023-01-13T22:48:16.685Z,435.00
2023-01-13T22:49:16.678Z,436.00
2023-01-13T22:50:16.687Z,436.00
2023-01-13T22:51:16.676Z,434.00
2023-01-13T22:52:16.651Z,431.00
2023-01-13T22:53:16.641Z,428.00
2023-01-13T22:54:16.638Z,429.00
2023-01-13T22:55:16.631Z,431.00
2023-01-13T22:56:16.615Z,431.00
2023-01-13T22:57:16.608Z,432.00
2023-01-13T22:58:16.595Z,431.00
2023-01-13T22:59:16.607Z,430.00
2023-01-13T23:00:16.572Z,430.00
2023-01-13T23:01:16.697Z,430.00
2023-01-13T23:02:16.592Z,429.00
2023-01-13T23:03:16.543Z,426.00
2023-01-13T23:04:16.700Z,425.00
2023-01-13T23:05:16.524Z,423.00
2023-01-13T23:06:16.516Z,422.00
2023-01-13T23:07:16.512Z,425.00
2023-01-13T23:08:16.494Z,425.00
2023-01-13T23:09:16.490Z,424.00
2023-01-13T23:10:16.478Z,426.00
2023-01-13T23:11:16.468Z,429.00
2023-01-13T23:12:16.459Z,430.00
2023-01-13T23:13:16.447Z,432.00
2023-01-13T23:14:16.438Z,429.00
2023-01-13T23:15:16.428Z,431.00
2023-01-13T23:16:16.426Z,432.00
2023-01-13T23:17:16.413Z,431.00
2023-01-13T23:18:16.422Z,432.00
2023-01-13T23:19:16.442Z,432.00
2023-01-13T23:20:16.382Z,431.00
2023-01-13T23:21:16.374Z,428.00
2023-01-13T23:22:16.365Z,430.00
2023-01-13T23:23:16.355Z,431.00
2023-01-13T23:24:16.342Z,428.00
2023-01-13T23:25:16.338Z,432.00
2023-01-13T23:26:16.325Z,431.00
2023-01-13T23:27:16.313Z,431.00
2023-01-13T23:28:16.312Z,437.00
2023-01-13T23:29:16.299Z,439.00
2023-01-13T23:30:16.285Z,436.00
2023-01-13T23:31:16.323Z,433.00
2023-01-13T23:32:16.280Z,432.00
2023-01-13T23:33:16.270Z,433.00
2023-01-13T23:34:16.269Z,433.00
2023-01-13T23:35:16.260Z,431.00
2023-01-13T23:36:16.232Z,432.00
2023-01-13T23:37:16.220Z,431.00
2023-01-13T23:38:16.209Z,427.00
2023-01-13T23:39:16.206Z,427.00
2023-01-13T23:40:16.221Z,426.00
2023-01-13T23:41:16.210Z,427.00
2023-01-13T23:42:16.172Z,424.00
2023-01-13T23:43:16.160Z,427.00
2023-01-13T23:44:16.157Z,426.00
2023-01-13T23:45:16.140Z,429.00
2023-01-13T23:46:16.142Z,430.00
2023-01-13T23:47:16.121Z,427.00
2023-01-13T23:48:16.113Z,423.00
2023-01-13T23:49:16.107Z,423.00
2023-01-13T23:50:16.120Z,421.00
2023-01-13T23:51:16.084Z,422.00
2023-01-13T23:52:16.085Z,424.00
2023-01-13T23:53:16.063Z,425.00
2023-01-13T23:54:16.054Z,426.00
2023-01-13T23:55:16.054Z,425.00
2023-01-13T23:56:16.048Z,425.00
2023-01-13T23:57:16.026Z,423.00
2023-01-13T23:58:16.013Z,425.00
2023-01-13T23:59:16.011Z,425.00
